createdAt,value
2019-05-18T00:00:41.139Z,0.00
2019-05-18T00:01:41.148Z,0.00
2019-05-18T00:02:41.114Z,0.00
2019-05-18T00:03:41.107Z,0.00
2019-05-18T00:04:41.121Z,0.00
2019-05-18T00:05:41.086Z,0.00
2019-05-18T00:06:41.068Z,0.00
2019-05-18T00:07:41.127Z,0.00
2019-05-18T00:08:41.061Z,0.00
2019-05-18T00:09:41.041Z,0.00
2019-05-18T00:10:41.052Z,0.00
2019-05-18T00:11:41.017Z,0.00
2019-05-18T00:12:41.031Z,0.00
2019-05-18T00:13:41.019Z,0.00
2019-05-18T00:14:40.982Z,0.00
2019-05-18T00:15:40.966Z,0.00
2019-05-18T00:16:40.957Z,0.00
2019-05-18T00:17:40.969Z,0.00
2019-05-18T00:18:40.933Z,0.00
2019-05-18T00:19:40.946Z,0.00
2019-05-18T00:20:40.940Z,0.00
2019-05-18T00:21:40.897Z,0.00
2019-05-18T00:22:40.889Z,0.00
2019-05-18T00:23:40.908Z,0.00
2019-05-18T00:24:40.867Z,0.00
2019-05-18T00:25:40.888Z,0.00
2019-05-18T00:26:40.848Z,0.00
2019-05-18T00:27:40.836Z,0.00
2019-05-18T00:28:40.844Z,0.00
2019-05-18T00:29:40.815Z,0.00
2019-05-18T00:30:40.798Z,0.00
2019-05-18T00:31:40.831Z,0.00
2019-05-18T00:32:40.799Z,0.00
2019-05-18T00:33:40.760Z,0.00
2019-05-18T00:34:40.801Z,0.00
2019-05-18T00:35:40.745Z,0.00
2019-05-18T00:36:40.744Z,0.00
2019-05-18T00:37:40.736Z,0.00
2019-05-18T00:38:40.706Z,0.00
2019-05-18T00:39:40.729Z,0.00
2019-05-18T00:40:40.692Z,0.00
2019-05-18T00:41:40.676Z,0.00
2019-05-18T00:42:40.662Z,0.00
2019-05-18T00:43:40.687Z,0.00
2019-05-18T00:44:40.667Z,0.00
2019-05-18T00:45:40.649Z,0.00
2019-05-18T00:46:40.624Z,0.00
2019-05-18T00:47:42.122Z,0.00
2019-05-18T00:48:40.592Z,0.00
2019-05-18T00:49:40.621Z,0.00
2019-05-18T00:50:40.596Z,0.00
2019-05-18T00:51:40.573Z,0.00
2019-05-18T00:52:40.550Z,0.00
2019-05-18T00:53:40.537Z,0.00
2019-05-18T00:54:40.566Z,0.00
2019-05-18T00:55:40.513Z,0.00
2019-05-18T00:56:40.542Z,0.00
2019-05-18T00:57:40.501Z,0.00
2019-05-18T00:58:40.478Z,0.00
2019-05-18T00:59:40.498Z,0.00
2019-05-18T01:00:40.460Z,0.00
2019-05-18T01:01:40.452Z,0.00
2019-05-18T01:02:40.497Z,0.00
2019-05-18T01:03:40.426Z,0.00
2019-05-18T01:04:40.410Z,0.00
2019-05-18T01:05:40.406Z,0.00
2019-05-18T01:06:40.400Z,0.00
2019-05-18T01:07:40.415Z,0.00
2019-05-18T01:08:40.402Z,0.00
2019-05-18T01:09:40.363Z,0.00
2019-05-18T01:10:40.378Z,0.00
2019-05-18T01:11:40.337Z,0.00
2019-05-18T01:12:40.322Z,0.00
2019-05-18T01:13:40.312Z,0.00
2019-05-18T01:14:40.337Z,0.00
2019-05-18T01:15:40.318Z,0.00
2019-05-18T01:16:40.283Z,0.00
2019-05-18T01:17:40.317Z,0.00
2019-05-18T01:18:40.263Z,0.00
2019-05-18T01:19:40.260Z,0.00
2019-05-18T01:20:40.257Z,0.00
2019-05-18T01:21:40.225Z,0.00
2019-05-18T01:22:40.244Z,0.00
2019-05-18T01:23:40.204Z,0.00
2019-05-18T01:24:40.187Z,0.00
2019-05-18T01:25:40.213Z,0.00
2019-05-18T01:26:40.190Z,0.00
2019-05-18T01:27:40.169Z,0.00
2019-05-18T01:28:40.157Z,0.00
2019-05-18T01:29:40.160Z,0.00
2019-05-18T01:30:40.125Z,0.00
2019-05-18T01:31:40.140Z,0.00
2019-05-18T01:32:40.128Z,0.00
2019-05-18T01:33:40.090Z,0.00
2019-05-18T01:34:40.082Z,0.00
2019-05-18T01:35:40.068Z,0.00
2019-05-18T01:36:40.077Z,0.00
2019-05-18T01:37:40.047Z,0.00
2019-05-18T01:38:40.059Z,0.00
2019-05-18T01:39:40.046Z,0.00
2019-05-18T01:40:40.010Z,0.00
2019-05-18T01:41:40.003Z,0.00
2019-05-18T01:42:39.988Z,0.00
2019-05-18T01:43:40.011Z,0.00
2019-05-18T01:44:39.992Z,0.00
2019-05-18T01:45:39.954Z,0.00
2019-05-18T01:46:39.941Z,0.00
2019-05-18T01:47:39.940Z,0.00
2019-05-18T01:48:39.967Z,0.00
2019-05-18T01:49:39.915Z,0.00
2019-05-18T01:50:39.916Z,0.00
2019-05-18T01:51:39.885Z,0.00
2019-05-18T01:52:39.874Z,0.00
2019-05-18T01:53:39.896Z,0.00
2019-05-18T01:54:39.854Z,0.00
2019-05-18T01:55:39.844Z,0.00
2019-05-18T01:56:39.839Z,0.00
2019-05-18T01:57:39.818Z,0.00
2019-05-18T01:58:39.840Z,0.00
2019-05-18T01:59:39.795Z,0.00
2019-05-18T02:00:39.786Z,0.00
2019-05-18T02:01:39.793Z,0.00
2019-05-18T02:02:39.760Z,0.00
2019-05-18T02:03:39.784Z,0.00
2019-05-18T02:04:39.740Z,0.00
2019-05-18T02:05:39.783Z,0.00
2019-05-18T02:06:39.716Z,0.00
2019-05-18T02:07:39.773Z,0.00
2019-05-18T02:08:39.693Z,0.00
2019-05-18T02:09:39.698Z,0.00
2019-05-18T02:10:39.670Z,0.00
2019-05-18T02:11:39.667Z,0.00
2019-05-18T02:12:39.674Z,0.00
2019-05-18T02:13:39.658Z,0.00
2019-05-18T02:14:39.648Z,0.00
2019-05-18T02:15:39.620Z,0.00
2019-05-18T02:16:39.604Z,0.00
2019-05-18T02:17:39.590Z,0.00
2019-05-18T02:18:39.578Z,0.00
2019-05-18T02:19:39.614Z,0.00
2019-05-18T02:20:39.574Z,0.00
2019-05-18T02:21:39.554Z,0.00
2019-05-18T02:22:39.545Z,0.00
2019-05-18T02:23:39.527Z,0.00
2019-05-18T02:24:39.536Z,0.00
2019-05-18T02:25:39.536Z,0.00
2019-05-18T02:26:39.510Z,0.00
2019-05-18T02:27:39.483Z,0.00
2019-05-18T02:28:39.474Z,0.00
2019-05-18T02:29:39.480Z,0.00
2019-05-18T02:30:39.446Z,0.00
2019-05-18T02:31:39.473Z,0.00
2019-05-18T02:32:39.425Z,0.00
2019-05-18T02:33:39.424Z,0.00
2019-05-18T02:34:39.426Z,0.00
2019-05-18T02:35:39.388Z,0.00
2019-05-18T02:36:39.381Z,0.00
2019-05-18T02:37:39.383Z,0.00
2019-05-18T02:38:39.386Z,0.00
2019-05-18T02:39:39.357Z,0.00
2019-05-18T02:40:39.333Z,0.00
2019-05-18T02:41:39.321Z,0.00
2019-05-18T02:42:39.312Z,0.00
2019-05-18T02:43:39.348Z,0.00
2019-05-18T02:44:39.298Z,0.00
2019-05-18T02:45:39.281Z,0.00
2019-05-18T02:46:39.259Z,0.00
2019-05-18T02:47:39.263Z,0.00
2019-05-18T02:48:49.609Z,0.00
2019-05-18T02:49:40.229Z,0.00
2019-05-18T02:50:39.247Z,0.00
2019-05-18T02:51:39.204Z,0.00
2019-05-18T02:52:39.194Z,0.00
2019-05-18T02:53:39.211Z,0.00
2019-05-18T02:54:39.177Z,4.00
2019-05-18T02:55:39.187Z,4.00
2019-05-18T02:56:39.176Z,4.00
2019-05-18T02:57:39.147Z,0.00
2019-05-18T02:58:39.148Z,4.00
2019-05-18T02:59:39.120Z,4.00
2019-05-18T03:00:39.117Z,4.00
2019-05-18T03:01:39.105Z,4.00
2019-05-18T03:02:39.167Z,4.00
2019-05-18T03:03:39.069Z,8.00
2019-05-18T03:04:39.066Z,4.00
2019-05-18T03:05:39.051Z,4.00
2019-05-18T03:06:39.043Z,4.00
2019-05-18T03:07:39.069Z,8.00
2019-05-18T03:08:39.039Z,8.00
2019-05-18T03:09:39.007Z,12.00
2019-05-18T03:10:38.996Z,12.00
2019-05-18T03:11:38.988Z,16.00
2019-05-18T03:12:39.005Z,16.00
2019-05-18T03:13:38.991Z,16.00
2019-05-18T03:14:38.968Z,16.00
2019-05-18T03:15:38.936Z,20.00
2019-05-18T03:16:38.924Z,20.00
2019-05-18T03:17:38.952Z,24.00
2019-05-18T03:18:38.936Z,28.00
2019-05-18T03:19:38.900Z,28.00
2019-05-18T03:20:38.920Z,28.00
2019-05-18T03:21:38.871Z,32.00
2019-05-18T03:22:38.863Z,32.00
2019-05-18T03:23:38.873Z,32.00
2019-05-18T03:24:38.835Z,36.00
2019-05-18T03:25:38.822Z,40.00
2019-05-18T03:26:38.836Z,40.00
2019-05-18T03:27:38.815Z,44.00
2019-05-18T03:28:38.817Z,48.00
2019-05-18T03:29:38.787Z,52.00
2019-05-18T03:30:38.775Z,56.00
2019-05-18T03:31:38.761Z,60.00
2019-05-18T03:32:38.822Z,60.00
2019-05-18T03:33:38.741Z,64.00
2019-05-18T03:34:38.725Z,68.00
2019-05-18T03:35:38.759Z,76.00
2019-05-18T03:36:38.700Z,76.00
2019-05-18T03:37:38.728Z,84.00
2019-05-18T03:38:38.703Z,88.00
2019-05-18T03:39:38.668Z,88.00
2019-05-18T03:40:38.658Z,96.00
2019-05-18T03:41:38.650Z,112.00
2019-05-18T03:42:38.670Z,124.00
2019-05-18T03:43:38.644Z,120.00
2019-05-18T03:44:38.612Z,132.00
2019-05-18T03:45:38.600Z,144.00
2019-05-18T03:46:38.623Z,160.00
2019-05-18T03:47:38.589Z,148.00
2019-05-18T03:48:38.567Z,152.00
2019-05-18T03:49:38.580Z,152.00
2019-05-18T03:50:38.571Z,164.00
2019-05-18T03:51:38.568Z,176.00
2019-05-18T03:52:38.518Z,192.00
2019-05-18T03:53:38.504Z,196.00
2019-05-18T03:54:38.530Z,204.00
2019-05-18T03:55:38.507Z,252.00
2019-05-18T03:56:38.479Z,288.00
2019-05-18T03:57:38.469Z,304.00
2019-05-18T03:58:38.457Z,252.00
2019-05-18T03:59:38.471Z,268.00
2019-05-18T04:00:38.424Z,252.00
2019-05-18T04:01:38.477Z,272.00
2019-05-18T04:02:38.423Z,276.00
2019-05-18T04:03:38.401Z,292.00
2019-05-18T04:04:38.378Z,376.00
2019-05-18T04:05:38.394Z,340.00
2019-05-18T04:06:38.388Z,352.00
2019-05-18T04:07:38.391Z,316.00
2019-05-18T04:08:38.335Z,384.00
2019-05-18T04:09:38.334Z,400.00
2019-05-18T04:10:38.333Z,460.00
2019-05-18T04:11:38.337Z,468.00
2019-05-18T04:12:38.293Z,504.00
2019-05-18T04:13:38.327Z,560.00
2019-05-18T04:14:38.278Z,752.00
2019-05-18T04:15:38.256Z,748.00
2019-05-18T04:16:38.274Z,828.00
2019-05-18T04:17:38.238Z,880.00
2019-05-18T04:18:38.231Z,1080.00
2019-05-18T04:19:46.217Z,1256.00
2019-05-18T04:20:39.201Z,1144.00
2019-05-18T04:21:38.217Z,1116.00
2019-05-18T04:22:38.179Z,1032.00
2019-05-18T04:23:38.173Z,980.00
2019-05-18T04:24:38.161Z,952.00
2019-05-18T04:25:38.170Z,912.00
2019-05-18T04:26:38.164Z,1128.00
2019-05-18T04:27:38.126Z,1068.00
2019-05-18T04:28:38.114Z,1120.00
2019-05-18T04:29:38.100Z,1068.00
2019-05-18T04:30:38.083Z,1124.00
2019-05-18T04:31:38.130Z,1424.00
2019-05-18T04:32:38.069Z,1596.00
2019-05-18T04:33:38.085Z,1372.00
2019-05-18T04:34:38.046Z,1464.00
2019-05-18T04:35:38.132Z,1352.00
2019-05-18T04:36:38.055Z,1420.00
2019-05-18T04:37:38.084Z,1672.00
2019-05-18T04:38:37.995Z,1572.00
2019-05-18T04:39:37.987Z,1376.00
2019-05-18T04:40:37.984Z,1552.00
2019-05-18T04:41:37.990Z,1864.00
2019-05-18T04:42:37.986Z,1964.00
2019-05-18T04:43:38.008Z,2068.00
2019-05-18T04:44:37.931Z,2392.00
2019-05-18T04:45:37.920Z,2352.00
2019-05-18T04:46:37.905Z,2140.00
2019-05-18T04:47:37.910Z,1916.00
2019-05-18T04:48:37.933Z,1928.00
2019-05-18T04:49:37.904Z,2272.00
2019-05-18T04:50:37.889Z,2104.00
2019-05-18T04:51:37.866Z,2472.00
2019-05-18T04:52:37.860Z,2232.00
2019-05-18T04:53:37.839Z,2300.00
2019-05-18T04:54:37.827Z,2072.00
2019-05-18T04:55:37.855Z,2132.00
2019-05-18T04:56:37.797Z,2320.00
2019-05-18T04:57:37.824Z,2224.00
2019-05-18T04:58:37.784Z,2092.00
2019-05-18T04:59:37.773Z,2228.00
2019-05-18T05:00:37.796Z,2196.00
2019-05-18T05:01:37.738Z,2116.00
2019-05-18T05:02:37.729Z,2104.00
2019-05-18T05:03:37.736Z,2112.00
2019-05-18T05:04:37.713Z,2300.00
2019-05-18T05:05:37.692Z,2036.00
2019-05-18T05:06:37.702Z,2012.00
2019-05-18T05:07:37.676Z,1964.00
2019-05-18T05:08:37.689Z,1900.00
2019-05-18T05:09:37.658Z,1944.00
2019-05-18T05:10:37.910Z,2016.00
2019-05-18T05:11:37.663Z,2036.00
2019-05-18T05:12:37.617Z,2016.00
2019-05-18T05:13:37.612Z,1972.00
2019-05-18T05:14:37.590Z,2024.00
2019-05-18T05:15:38.315Z,2040.00
2019-05-18T05:16:38.284Z,2084.00
2019-05-18T05:17:37.557Z,2036.00
2019-05-18T05:18:37.537Z,2028.00
2019-05-18T05:19:37.551Z,2028.00
2019-05-18T05:20:38.320Z,1996.00
2019-05-18T05:21:37.537Z,2004.00
2019-05-18T05:22:37.602Z,2020.00
2019-05-18T05:23:37.499Z,2008.00
2019-05-18T05:24:37.558Z,2008.00
2019-05-18T05:25:37.490Z,2044.00
2019-05-18T05:26:39.417Z,2044.00
2019-05-18T05:27:37.463Z,2020.00
2019-05-18T05:28:38.273Z,2000.00
2019-05-18T05:29:37.424Z,1964.00
2019-05-18T05:30:37.444Z,1980.00
2019-05-18T05:31:37.403Z,2016.00
2019-05-18T05:32:37.397Z,2020.00
2019-05-18T05:33:37.379Z,2032.00
2019-05-18T05:34:37.366Z,2016.00
2019-05-18T05:35:37.937Z,2024.00
2019-05-18T05:36:37.347Z,2012.00
2019-05-18T05:37:37.410Z,1996.00
2019-05-18T05:38:37.319Z,2016.00
2019-05-18T05:39:37.321Z,2016.00
2019-05-18T05:40:37.320Z,2000.00
2019-05-18T05:41:37.320Z,1996.00
2019-05-18T05:42:37.276Z,1968.00
2019-05-18T05:43:37.293Z,1988.00
2019-05-18T05:44:37.253Z,2004.00
2019-05-18T05:45:37.245Z,2036.00
2019-05-18T05:46:37.587Z,2044.00
2019-05-18T05:47:37.245Z,2028.00
2019-05-18T05:48:37.243Z,2036.00
2019-05-18T05:49:37.204Z,2020.00
2019-05-18T05:50:37.178Z,2044.00
2019-05-18T05:51:37.170Z,2080.00
2019-05-18T05:52:37.167Z,2116.00
2019-05-18T05:53:37.187Z,2132.00
2019-05-18T05:54:37.157Z,2128.00
2019-05-18T05:55:37.126Z,2184.00
2019-05-18T05:56:37.119Z,2160.00
2019-05-18T05:57:37.112Z,2148.00
2019-05-18T05:58:37.150Z,2156.00
2019-05-18T05:59:37.097Z,2188.00
2019-05-18T06:00:37.077Z,2136.00
2019-05-18T06:01:37.065Z,2152.00
2019-05-18T06:02:37.129Z,2164.00
2019-05-18T06:03:37.072Z,2184.00
2019-05-18T06:04:37.027Z,2180.00
2019-05-18T06:05:37.052Z,2284.00
2019-05-18T06:06:37.001Z,2284.00
2019-05-18T06:07:36.995Z,2236.00
2019-05-18T06:08:37.031Z,2260.00
2019-05-18T06:09:36.975Z,2252.00
2019-05-18T06:10:37.028Z,2228.00
2019-05-18T06:11:36.984Z,2248.00
2019-05-18T06:12:36.943Z,2312.00
2019-05-18T06:13:36.942Z,2360.00
2019-05-18T06:14:36.916Z,2360.00
2019-05-18T06:15:36.908Z,2316.00
2019-05-18T06:16:36.960Z,2332.00
2019-05-18T06:17:36.985Z,2312.00
2019-05-18T06:18:36.880Z,2308.00
2019-05-18T06:19:36.867Z,2292.00
2019-05-18T06:20:50.481Z,2308.00
2019-05-18T06:21:37.880Z,2332.00
2019-05-18T06:22:36.923Z,2364.00
2019-05-18T06:23:36.817Z,2388.00
2019-05-18T06:24:36.869Z,2440.00
2019-05-18T06:25:36.804Z,2344.00
2019-05-18T06:26:36.788Z,2352.00
2019-05-18T06:27:36.767Z,2380.00
2019-05-18T06:28:36.763Z,2432.00
2019-05-18T06:29:36.780Z,2464.00
2019-05-18T06:30:36.765Z,2344.00
2019-05-18T06:31:36.722Z,2340.00
2019-05-18T06:32:36.709Z,2336.00
2019-05-18T06:33:36.710Z,2336.00
2019-05-18T06:34:36.715Z,2340.00
2019-05-18T06:35:36.685Z,2356.00
2019-05-18T06:36:36.691Z,2428.00
2019-05-18T06:37:36.658Z,2424.00
2019-05-18T06:38:36.648Z,2436.00
2019-05-18T06:39:36.666Z,2420.00
2019-05-18T06:40:36.623Z,2456.00
2019-05-18T06:41:36.613Z,2668.00
2019-05-18T06:42:36.600Z,2804.00
2019-05-18T06:43:36.603Z,2868.00
2019-05-18T06:44:36.618Z,2880.00
2019-05-18T06:45:36.561Z,2844.00
2019-05-18T06:46:36.561Z,2852.00
2019-05-18T06:47:36.545Z,2852.00
2019-05-18T06:48:36.556Z,2912.00
2019-05-18T06:49:36.532Z,2948.00
2019-05-18T06:50:36.562Z,2972.00
2019-05-18T06:51:36.535Z,2932.00
2019-05-18T06:52:36.517Z,2896.00
2019-05-18T06:53:36.483Z,2920.00
2019-05-18T06:54:36.492Z,2892.00
2019-05-18T06:55:36.463Z,2872.00
2019-05-18T06:56:36.469Z,2916.00
2019-05-18T06:57:36.473Z,2848.00
2019-05-18T06:58:36.424Z,2860.00
2019-05-18T06:59:36.468Z,2868.00
2019-05-18T07:00:36.403Z,2808.00
2019-05-18T07:01:36.389Z,2788.00
2019-05-18T07:02:36.398Z,2812.00
2019-05-18T07:03:36.363Z,2820.00
2019-05-18T07:04:36.356Z,2800.00
2019-05-18T07:05:36.362Z,2764.00
2019-05-18T07:06:36.327Z,2752.00
2019-05-18T07:07:36.358Z,2744.00
2019-05-18T07:08:36.310Z,2732.00
2019-05-18T07:09:36.304Z,2728.00
2019-05-18T07:10:36.289Z,2744.00
2019-05-18T07:11:36.333Z,2740.00
2019-05-18T07:12:36.271Z,2696.00
2019-05-18T07:13:36.283Z,2680.00
2019-05-18T07:14:36.247Z,2672.00
2019-05-18T07:15:36.229Z,2668.00
2019-05-18T07:16:36.219Z,2680.00
2019-05-18T07:17:36.245Z,2680.00
2019-05-18T07:18:36.228Z,2676.00
2019-05-18T07:19:36.190Z,2652.00
2019-05-18T07:20:36.187Z,2628.00
2019-05-18T07:21:36.187Z,2612.00
2019-05-18T07:22:36.152Z,2656.00
2019-05-18T07:23:36.179Z,2604.00
2019-05-18T07:24:36.125Z,2584.00
2019-05-18T07:25:36.124Z,2564.00
2019-05-18T07:26:36.141Z,2540.00
2019-05-18T07:27:36.105Z,2580.00
2019-05-18T07:28:36.080Z,2576.00
2019-05-18T07:29:36.067Z,2572.00
2019-05-18T07:30:36.097Z,2564.00
2019-05-18T07:31:36.078Z,2556.00
2019-05-18T07:32:36.040Z,2548.00
2019-05-18T07:33:36.032Z,2540.00
2019-05-18T07:34:36.019Z,2552.00
2019-05-18T07:35:36.036Z,2528.00
2019-05-18T07:36:36.059Z,2512.00
2019-05-18T07:37:36.012Z,2516.00
2019-05-18T07:38:35.968Z,2520.00
2019-05-18T07:39:36.243Z,2532.00
2019-05-18T07:40:35.954Z,2544.00
2019-05-18T07:41:46.346Z,2556.00
2019-05-18T07:42:35.952Z,2540.00
2019-05-18T07:43:36.918Z,2548.00
2019-05-18T07:44:35.911Z,2576.00
2019-05-18T07:45:35.893Z,2548.00
2019-05-18T07:46:35.913Z,2520.00
2019-05-18T07:47:35.879Z,2540.00
2019-05-18T07:48:35.898Z,2552.00
2019-05-18T07:49:35.852Z,2572.00
2019-05-18T07:50:35.857Z,2592.00
2019-05-18T07:51:37.370Z,2564.00
2019-05-18T07:52:35.813Z,2540.00
2019-05-18T07:53:35.803Z,2564.00
2019-05-18T07:54:35.830Z,2516.00
2019-05-18T07:55:35.970Z,2532.00
2019-05-18T07:56:35.785Z,2516.00
2019-05-18T07:57:35.766Z,2516.00
2019-05-18T07:58:35.790Z,2516.00
2019-05-18T07:59:35.752Z,2408.00
2019-05-18T08:00:35.791Z,2500.00
2019-05-18T08:01:35.719Z,2516.00
2019-05-18T08:02:35.704Z,2456.00
2019-05-18T08:03:35.688Z,2424.00
2019-05-18T08:04:35.778Z,2420.00
2019-05-18T08:05:35.899Z,2436.00
2019-05-18T08:06:35.664Z,2424.00
2019-05-18T08:07:35.651Z,2412.00
2019-05-18T08:08:35.701Z,2424.00
2019-05-18T08:09:35.626Z,2420.00
2019-05-18T08:10:35.645Z,2412.00
2019-05-18T08:11:35.634Z,2428.00
2019-05-18T08:12:35.591Z,2400.00
2019-05-18T08:13:35.594Z,2428.00
2019-05-18T08:14:35.612Z,2452.00
2019-05-18T08:15:35.597Z,2464.00
2019-05-18T08:16:35.628Z,2500.00
2019-05-18T08:17:35.536Z,2484.00
2019-05-18T08:18:35.565Z,2484.00
2019-05-18T08:19:35.529Z,2436.00
2019-05-18T08:20:35.506Z,2404.00
2019-05-18T08:21:35.529Z,2408.00
2019-05-18T08:22:36.327Z,2364.00
2019-05-18T08:23:35.466Z,2372.00
2019-05-18T08:24:35.496Z,2456.00
2019-05-18T08:25:35.445Z,2400.00
2019-05-18T08:26:35.436Z,2428.00
2019-05-18T08:27:35.489Z,2424.00
2019-05-18T08:28:35.461Z,2436.00
2019-05-18T08:29:35.406Z,2500.00
2019-05-18T08:30:35.397Z,2508.00
2019-05-18T08:31:35.389Z,2500.00
2019-05-18T08:32:35.472Z,2504.00
2019-05-18T08:33:35.427Z,2456.00
2019-05-18T08:34:35.371Z,2488.00
2019-05-18T08:35:35.352Z,2452.00
2019-05-18T08:36:35.321Z,2500.00
2019-05-18T08:37:35.312Z,2492.00
2019-05-18T08:38:35.371Z,2480.00
2019-05-18T08:39:35.290Z,2468.00
2019-05-18T08:40:35.285Z,2500.00
2019-05-18T08:41:35.297Z,2516.00
2019-05-18T08:42:35.278Z,2528.00
2019-05-18T08:43:35.267Z,2516.00
2019-05-18T08:44:35.225Z,2516.00
2019-05-18T08:45:35.226Z,2524.00
2019-05-18T08:46:35.865Z,2520.00
2019-05-18T08:47:35.283Z,2520.00
2019-05-18T08:48:35.192Z,2528.00
2019-05-18T08:49:35.176Z,2516.00
2019-05-18T08:50:35.168Z,2520.00
2019-05-18T08:51:35.197Z,2516.00
2019-05-18T08:52:35.240Z,2528.00
2019-05-18T08:53:35.133Z,2540.00
2019-05-18T08:54:35.118Z,2544.00
2019-05-18T08:55:35.140Z,2504.00
2019-05-18T08:56:35.105Z,2544.00
2019-05-18T08:57:35.837Z,2516.00
2019-05-18T08:58:35.136Z,2528.00
2019-05-18T08:59:35.073Z,2524.00
2019-05-18T09:00:35.091Z,2520.00
2019-05-18T09:01:35.045Z,2512.00
2019-05-18T09:02:35.057Z,2516.00
2019-05-18T09:03:35.036Z,2512.00
2019-05-18T09:04:35.018Z,2508.00
2019-05-18T09:05:35.042Z,2512.00
2019-05-18T09:06:34.991Z,2508.00
2019-05-18T09:07:34.981Z,2492.00
2019-05-18T09:08:34.975Z,2496.00
2019-05-18T09:09:34.954Z,2512.00
2019-05-18T09:10:34.970Z,2512.00
2019-05-18T09:11:34.951Z,2516.00
2019-05-18T09:12:34.915Z,2512.00
2019-05-18T09:13:34.909Z,2500.00
2019-05-18T09:14:34.889Z,2484.00
2019-05-18T09:15:34.925Z,2480.00
2019-05-18T09:16:34.876Z,2488.00
2019-05-18T09:17:34.886Z,2496.00
2019-05-18T09:18:34.847Z,2504.00
2019-05-18T09:19:34.880Z,2504.00
2019-05-18T09:20:35.007Z,2484.00
2019-05-18T09:21:34.821Z,2476.00
2019-05-18T09:22:34.833Z,2388.00
2019-05-18T09:23:34.793Z,2384.00
2019-05-18T09:24:34.787Z,2400.00
2019-05-18T09:25:34.836Z,2400.00
2019-05-18T09:26:34.760Z,2392.00
2019-05-18T09:27:34.748Z,2384.00
2019-05-18T09:28:34.759Z,2392.00
2019-05-18T09:29:34.733Z,2388.00
2019-05-18T09:30:34.798Z,2404.00
2019-05-18T09:31:34.707Z,2404.00
2019-05-18T09:32:34.698Z,2404.00
2019-05-18T09:33:34.691Z,2412.00
2019-05-18T09:34:34.671Z,2404.00
2019-05-18T09:35:34.739Z,2400.00
2019-05-18T09:36:34.713Z,2384.00
2019-05-18T09:37:37.861Z,2376.00
2019-05-18T09:38:34.638Z,2412.00
2019-05-18T09:39:34.622Z,2420.00
2019-05-18T09:40:36.413Z,2420.00
2019-05-18T09:41:34.620Z,2428.00
2019-05-18T09:42:34.573Z,2432.00
2019-05-18T09:43:34.593Z,2440.00
2019-05-18T09:44:34.821Z,2432.00
2019-05-18T09:45:34.553Z,2436.00
2019-05-18T09:46:34.562Z,2428.00
2019-05-18T09:47:34.556Z,2428.00
2019-05-18T09:48:34.536Z,2424.00
2019-05-18T09:49:34.537Z,2432.00
2019-05-18T09:50:34.503Z,2432.00
2019-05-18T09:51:34.482Z,2432.00
2019-05-18T09:52:45.047Z,2432.00
2019-05-18T09:53:35.475Z,2428.00
2019-05-18T09:54:34.464Z,2440.00
2019-05-18T09:55:34.448Z,2444.00
2019-05-18T09:56:34.448Z,2432.00
2019-05-18T09:57:34.437Z,2440.00
2019-05-18T09:58:35.338Z,2448.00
2019-05-18T09:59:34.406Z,2440.00
2019-05-18T10:00:38.582Z,2448.00
2019-05-18T10:01:34.381Z,2448.00
2019-05-18T10:02:34.388Z,2456.00
2019-05-18T10:03:34.407Z,2456.00
2019-05-18T10:04:34.355Z,2460.00
2019-05-18T10:05:34.329Z,2460.00
2019-05-18T10:06:34.323Z,2456.00
2019-05-18T10:07:34.399Z,2452.00
2019-05-18T10:08:34.295Z,2448.00
2019-05-18T10:09:39.331Z,2440.00
2019-05-18T10:10:34.282Z,2456.00
2019-05-18T10:11:38.362Z,2448.00
2019-05-18T10:12:34.302Z,2448.00
2019-05-18T10:13:34.244Z,2452.00
2019-05-18T10:14:34.231Z,2452.00
2019-05-18T10:15:34.223Z,2464.00
2019-05-18T10:16:34.204Z,2464.00
2019-05-18T10:17:34.226Z,2468.00
2019-05-18T10:18:34.189Z,2472.00
2019-05-18T10:19:34.162Z,2472.00
2019-05-18T10:20:34.197Z,2472.00
2019-05-18T10:21:34.182Z,2472.00
2019-05-18T10:22:34.182Z,2468.00
2019-05-18T10:23:34.124Z,2472.00
2019-05-18T10:24:34.112Z,2468.00
2019-05-18T10:25:34.104Z,2480.00
2019-05-18T10:26:34.090Z,2480.00
2019-05-18T10:27:34.151Z,2488.00
2019-05-18T10:28:34.069Z,2492.00
2019-05-18T10:29:34.068Z,2492.00
2019-05-18T10:30:34.039Z,2484.00
2019-05-18T10:31:34.031Z,2500.00
2019-05-18T10:32:34.048Z,2504.00
2019-05-18T10:33:34.039Z,2508.00
2019-05-18T10:34:34.004Z,2508.00
2019-05-18T10:35:34.010Z,2524.00
2019-05-18T10:36:33.988Z,2512.00
2019-05-18T10:37:33.972Z,2512.00
2019-05-18T10:38:34.028Z,2528.00
2019-05-18T10:39:34.001Z,2536.00
2019-05-18T10:40:33.930Z,2540.00
2019-05-18T10:41:33.951Z,2544.00
2019-05-18T10:42:33.911Z,2536.00
2019-05-18T10:43:33.904Z,2544.00
2019-05-18T10:44:33.888Z,2564.00
2019-05-18T10:45:33.914Z,2564.00
2019-05-18T10:46:33.893Z,2576.00
2019-05-18T10:47:33.882Z,2588.00
2019-05-18T10:48:33.850Z,2600.00
2019-05-18T10:49:33.837Z,2596.00
2019-05-18T10:50:33.829Z,2576.00
2019-05-18T10:51:33.843Z,2600.00
2019-05-18T10:52:33.794Z,2620.00
2019-05-18T10:53:33.827Z,2620.00
2019-05-18T10:54:33.819Z,2616.00
2019-05-18T10:55:33.773Z,2616.00
2019-05-18T10:56:33.779Z,2628.00
2019-05-18T10:57:33.749Z,2612.00
2019-05-18T10:58:33.729Z,2624.00
2019-05-18T10:59:33.763Z,2620.00
2019-05-18T11:00:33.718Z,2628.00
2019-05-18T11:01:33.729Z,2640.00
2019-05-18T11:02:33.690Z,2640.00
2019-05-18T11:03:33.688Z,2636.00
2019-05-18T11:04:33.691Z,2640.00
2019-05-18T11:05:33.652Z,2656.00
2019-05-18T11:06:33.643Z,2652.00
2019-05-18T11:07:33.750Z,2660.00
2019-05-18T11:08:33.623Z,2668.00
2019-05-18T11:09:33.626Z,2676.00
2019-05-18T11:10:33.623Z,2676.00
2019-05-18T11:11:33.586Z,2672.00
2019-05-18T11:12:33.597Z,2684.00
2019-05-18T11:13:33.578Z,2700.00
2019-05-18T11:14:33.553Z,2704.00
2019-05-18T11:15:33.582Z,2716.00
2019-05-18T11:16:33.587Z,2724.00
2019-05-18T11:17:33.567Z,2736.00
2019-05-18T11:18:33.521Z,2748.00
2019-05-18T11:19:33.495Z,2772.00
2019-05-18T11:20:33.523Z,2772.00
2019-05-18T11:21:33.502Z,2784.00
2019-05-18T11:22:33.499Z,2772.00
2019-05-18T11:23:43.108Z,2816.00
2019-05-18T11:24:34.455Z,2812.00
2019-05-18T11:25:33.464Z,2852.00
2019-05-18T11:26:33.440Z,2856.00
2019-05-18T11:27:33.410Z,2888.00
2019-05-18T11:28:33.440Z,2900.00
2019-05-18T11:29:33.407Z,2912.00
2019-05-18T11:30:33.416Z,2944.00
2019-05-18T11:31:33.366Z,2952.00
2019-05-18T11:32:33.364Z,2972.00
2019-05-18T11:33:33.400Z,3008.00
2019-05-18T11:34:33.330Z,3032.00
2019-05-18T11:35:33.347Z,3056.00
2019-05-18T11:36:36.395Z,3072.00
2019-05-18T11:37:33.343Z,3088.00
2019-05-18T11:38:33.281Z,3108.00
2019-05-18T11:39:33.279Z,3136.00
2019-05-18T11:40:33.313Z,3156.00
2019-05-18T11:41:33.294Z,3204.00
2019-05-18T11:42:33.283Z,3216.00
2019-05-18T11:43:33.233Z,3240.00
2019-05-18T11:44:33.293Z,3264.00
2019-05-18T11:45:33.210Z,3300.00
2019-05-18T11:46:33.200Z,3336.00
2019-05-18T11:47:38.560Z,3376.00
2019-05-18T11:48:33.173Z,3408.00
2019-05-18T11:49:33.170Z,3424.00
2019-05-18T11:50:33.151Z,3448.00
2019-05-18T11:51:33.452Z,3496.00
2019-05-18T11:52:33.185Z,3520.00
2019-05-18T11:53:33.124Z,3552.00
2019-05-18T11:54:33.121Z,3568.00
2019-05-18T11:55:33.122Z,3592.00
2019-05-18T11:56:33.078Z,3644.00
2019-05-18T11:57:33.421Z,3660.00
2019-05-18T11:58:33.057Z,3684.00
2019-05-18T11:59:33.058Z,3724.00
2019-05-18T12:00:33.244Z,3748.00
2019-05-18T12:01:33.044Z,3772.00
2019-05-18T12:02:33.019Z,3812.00
2019-05-18T12:03:33.112Z,3852.00
2019-05-18T12:04:33.016Z,3884.00
2019-05-18T12:05:32.991Z,3904.00
2019-05-18T12:06:33.013Z,3932.00
2019-05-18T12:07:32.968Z,3956.00
2019-05-18T12:08:32.960Z,3976.00
2019-05-18T12:09:32.981Z,4008.00
2019-05-18T12:10:32.936Z,4032.00
2019-05-18T12:11:32.913Z,4060.00
2019-05-18T12:12:32.909Z,4092.00
2019-05-18T12:13:32.894Z,4136.00
2019-05-18T12:14:34.420Z,4156.00
2019-05-18T12:15:33.031Z,4188.00
2019-05-18T12:16:33.040Z,4224.00
2019-05-18T12:17:32.850Z,4256.00
2019-05-18T12:18:32.859Z,4284.00
2019-05-18T12:19:32.822Z,4328.00
2019-05-18T12:20:32.849Z,4356.00
2019-05-18T12:21:32.810Z,4384.00
2019-05-18T12:22:32.822Z,4416.00
2019-05-18T12:23:32.791Z,4432.00
2019-05-18T12:24:32.806Z,4464.00
2019-05-18T12:25:32.764Z,4488.00
2019-05-18T12:26:32.767Z,4532.00